Terminal Aerodrome Forecast
Issued by NWS Binghamton, NY

Home | Current Version | Previous Version | Text Only | Print | Product List | Glossary On
Versions: 1 2 3 4 5 6 7 8 9 10 11 12 13 14 15 16 17
000
FTUS41 KBGM 060859 AAA
TAFAVP
TAF AMD
KAVP 060859Z 0609/0706 10005KT P6SM OVC250
     FM061300 21005KT P6SM SCT045 BKN100
     FM061800 22005KT P6SM OVC045=

USA.gov is the U.S. government's official web portal to all federal, state and local government web resources and services.